createdAt,value
2023-05-05T00:00:25.857Z,101418.61
2023-05-05T00:01:27.762Z,101417.74
2023-05-05T00:02:29.729Z,101420.36
2023-05-05T00:03:31.601Z,101419.50
2023-05-05T00:04:33.488Z,101422.98
2023-05-05T00:05:35.296Z,101417.73
2023-05-05T00:06:37.078Z,101421.22
2023-05-05T00:07:38.919Z,101419.50
2023-05-05T00:08:41.821Z,101419.50
2023-05-05T00:09:43.636Z,101419.50
2023-05-05T00:10:45.427Z,101429.06
2023-05-05T00:11:47.218Z,101423.83
2023-05-05T00:12:49.075Z,101433.44
2023-05-05T00:13:50.839Z,101427.34
2023-05-05T00:14:52.640Z,101432.57
2023-05-05T00:15:54.445Z,101438.67
2023-05-05T00:16:56.508Z,101429.95
2023-05-05T00:17:58.430Z,101434.30
2023-05-05T00:19:00.299Z,101430.81
2023-05-05T00:20:02.082Z,101431.67
2023-05-05T00:21:03.875Z,101432.56
2023-05-05T00:22:05.697Z,101429.95
2023-05-05T00:23:07.534Z,101429.05
2023-05-05T00:24:09.336Z,101428.19
2023-05-05T00:25:11.138Z,101432.55
2023-05-05T00:26:13.259Z,101434.27
2023-05-05T00:27:15.040Z,101440.38
2023-05-05T00:28:16.859Z,101436.87
2023-05-05T00:29:18.636Z,101438.61
2023-05-05T00:30:20.428Z,101433.37
2023-05-05T00:31:22.290Z,101442.95
2023-05-05T00:32:24.190Z,101443.84
2023-05-05T00:33:26.063Z,101439.45
2023-05-05T00:34:27.867Z,101441.20
2023-05-05T00:35:29.671Z,101451.67
2023-05-05T00:36:31.574Z,101445.54
2023-05-05T00:37:33.371Z,101444.67
2023-05-05T00:38:35.192Z,101447.30
2023-05-05T00:39:37.003Z,101443.80
2023-05-05T00:40:38.803Z,101439.42
2023-05-05T00:41:40.589Z,101443.79
2023-05-05T00:42:42.387Z,101444.66
2023-05-05T00:43:44.203Z,101445.51
2023-05-05T00:44:46.024Z,101438.55
2023-05-05T00:45:48.114Z,101441.15
2023-05-05T00:46:49.939Z,101442.86
2023-05-05T00:47:51.782Z,101446.36
2023-05-05T00:48:53.710Z,101442.84
2023-05-05T00:49:55.610Z,101439.36
2023-05-05T00:50:57.405Z,101441.09
2023-05-05T00:51:59.205Z,101444.56
2023-05-05T00:53:01.031Z,101437.56
2023-05-05T00:54:02.807Z,101434.09
2023-05-05T00:55:04.606Z,101438.45
2023-05-05T00:56:06.517Z,101445.41
2023-05-05T00:57:08.310Z,101434.06
2023-05-05T00:58:10.151Z,101435.78
2023-05-05T00:59:11.908Z,101436.67
2023-05-05T01:00:13.823Z,101434.91
2023-05-05T01:01:15.690Z,101434.04
2023-05-05T01:02:17.533Z,101432.28
2023-05-05T01:03:19.415Z,101433.13
2023-05-05T01:04:21.316Z,101432.27
2023-05-05T01:05:23.118Z,101431.40
2023-05-05T01:06:24.921Z,101429.61
2023-05-05T01:07:26.721Z,101431.36
2023-05-05T01:08:28.562Z,101431.34
2023-05-05T01:09:30.348Z,101429.59
2023-05-05T01:10:33.294Z,101430.44
2023-05-05T01:11:35.087Z,101428.72
2023-05-05T01:12:36.903Z,101433.05
2023-05-05T01:13:38.733Z,101426.94
2023-05-05T01:14:40.536Z,101427.79
2023-05-05T01:15:42.442Z,101430.41
2023-05-05T01:16:44.368Z,101432.16
2023-05-05T01:17:46.204Z,101430.39
2023-05-05T01:18:48.089Z,101427.78
2023-05-05T01:19:49.877Z,101428.66
2023-05-05T01:20:51.676Z,101426.90
2023-05-05T01:21:53.514Z,101419.05
2023-05-05T01:22:55.307Z,101419.05
2023-05-05T01:23:57.137Z,101420.75
2023-05-05T01:24:58.831Z,101426.86
2023-05-05T01:26:00.631Z,101422.48
2023-05-05T01:27:02.447Z,101418.10
2023-05-05T01:28:04.252Z,101420.70
2023-05-05T01:29:06.349Z,101418.98
2023-05-05T01:30:08.704Z,101420.69
2023-05-05T01:31:10.701Z,101413.73
2023-05-05T01:32:12.577Z,101420.68
2023-05-05T01:33:14.389Z,101417.19
2023-05-05T01:34:16.213Z,101417.19
2023-05-05T01:35:18.015Z,101415.42
2023-05-05T01:36:19.914Z,101413.69
2023-05-05T01:37:21.706Z,101412.80
2023-05-05T01:38:23.566Z,101414.55
2023-05-05T01:39:25.391Z,101415.39
2023-05-05T01:40:27.177Z,101413.66
2023-05-05T01:41:29.002Z,101419.76
2023-05-05T01:42:30.826Z,101415.35
2023-05-05T01:43:32.598Z,101417.12
2023-05-05T01:44:34.447Z,101416.25
2023-05-05T01:45:36.184Z,101419.72
2023-05-05T01:46:38.134Z,101416.23
2023-05-05T01:47:39.941Z,101417.09
2023-05-05T01:48:42.339Z,101414.47
2023-05-05T01:49:44.261Z,101416.22
2023-05-05T01:50:46.064Z,101412.71
2023-05-05T01:51:47.913Z,101413.56
2023-05-05T01:52:49.688Z,101407.45
2023-05-05T01:53:51.487Z,101408.30
2023-05-05T01:54:53.306Z,101404.83
2023-05-05T01:55:55.122Z,101407.44
2023-05-05T01:56:56.904Z,101408.29
2023-05-05T01:57:58.737Z,101407.42
2023-05-05T01:59:00.511Z,101405.66
2023-05-05T02:00:02.402Z,101399.57
2023-05-05T02:01:04.209Z,101402.17
2023-05-05T02:02:06.109Z,101403.92
2023-05-05T02:03:07.981Z,101403.92
2023-05-05T02:04:10.099Z,101395.18
2023-05-05T02:05:11.935Z,101396.93
2023-05-05T02:06:13.739Z,101393.45
2023-05-05T02:07:15.527Z,101396.06
2023-05-05T02:08:17.316Z,101392.55
2023-05-05T02:09:19.123Z,101396.91
2023-05-05T02:10:20.978Z,101389.07
2023-05-05T02:11:22.779Z,101392.55
2023-05-05T02:12:24.564Z,101394.30
2023-05-05T02:13:26.388Z,101393.44
2023-05-05T02:14:28.159Z,101393.44
2023-05-05T02:15:30.038Z,101395.13
2023-05-05T02:16:31.881Z,101393.42
2023-05-05T02:17:33.705Z,101390.80
2023-05-05T02:18:35.466Z,101393.41
2023-05-05T02:19:37.266Z,101391.66
2023-05-05T02:20:39.250Z,101390.80
2023-05-05T02:21:40.951Z,101390.80
2023-05-05T02:22:45.362Z,101396.02
2023-05-05T02:23:47.512Z,101392.52
2023-05-05T02:24:49.318Z,101398.63
2023-05-05T02:25:51.143Z,101396.88
2023-05-05T02:26:52.929Z,101396.02
2023-05-05T02:27:54.738Z,101396.87
2023-05-05T02:28:56.514Z,101401.25
2023-05-05T02:29:58.318Z,101405.59
2023-05-05T02:31:00.216Z,101400.34
2023-05-05T02:32:02.133Z,101406.47
2023-05-05T02:33:03.974Z,101400.36
2023-05-05T02:34:05.826Z,101407.34
2023-05-05T02:35:07.629Z,101402.11
2023-05-05T02:36:09.868Z,101398.64
2023-05-05T02:37:11.711Z,101405.59
2023-05-05T02:38:13.506Z,101401.26
2023-05-05T02:39:15.323Z,101406.48
2023-05-05T02:40:17.231Z,101403.88
2023-05-05T02:41:19.037Z,101396.03
2023-05-05T02:42:20.855Z,101407.36
2023-05-05T02:43:22.705Z,101399.52
2023-05-05T02:44:24.559Z,101402.13
2023-05-05T02:45:26.351Z,101402.13
2023-05-05T02:46:28.189Z,101404.73
2023-05-05T02:47:30.094Z,101409.97
2023-05-05T02:48:31.931Z,101410.83
2023-05-05T02:49:33.737Z,101414.34
2023-05-05T02:50:35.664Z,101415.20
2023-05-05T02:51:37.441Z,101412.59
2023-05-05T02:52:39.244Z,101410.84
2023-05-05T02:53:41.036Z,101403.89
2023-05-05T02:54:42.868Z,101413.46
2023-05-05T02:55:44.918Z,101405.62
2023-05-05T02:56:46.728Z,101414.36
2023-05-05T02:57:48.527Z,101416.09
2023-05-05T02:58:50.321Z,101402.14
2023-05-05T02:59:52.106Z,101412.61
2023-05-05T03:00:53.940Z,101405.63
2023-05-05T03:01:55.800Z,101405.63
2023-05-05T03:02:57.776Z,101410.02
2023-05-05T03:03:59.739Z,101405.63
2023-05-05T03:05:01.544Z,101412.63
2023-05-05T03:06:03.603Z,101404.78
2023-05-05T03:07:05.390Z,101403.03
2023-05-05T03:08:07.191Z,101405.65
2023-05-05T03:09:08.980Z,101402.19
2023-05-05T03:10:11.310Z,101400.42
2023-05-05T03:11:13.282Z,101403.95
2023-05-05T03:12:15.196Z,101399.59
2023-05-05T03:13:16.919Z,101400.44
2023-05-05T03:14:18.700Z,101403.06
2023-05-05T03:15:20.511Z,101406.58
2023-05-05T03:16:22.361Z,101415.30
2023-05-05T03:17:24.251Z,101411.83
2023-05-05T03:18:26.022Z,101417.08
2023-05-05T03:19:27.809Z,101415.33
2023-05-05T03:20:29.607Z,101413.61
2023-05-05T03:21:31.680Z,101416.17
2023-05-05T03:22:33.487Z,101423.19
2023-05-05T03:23:35.277Z,101421.47
2023-05-05T03:24:37.093Z,101429.31
2023-05-05T03:25:38.892Z,101421.47
2023-05-05T03:26:40.801Z,101418.85
2023-05-05T03:27:42.595Z,101421.48
2023-05-05T03:28:44.443Z,101421.49
2023-05-05T03:29:46.251Z,101419.75
2023-05-05T03:30:48.037Z,101415.38
2023-05-05T03:31:49.964Z,101414.52
2023-05-05T03:32:51.871Z,101419.75
2023-05-05T03:33:53.719Z,101424.98
2023-05-05T03:34:55.515Z,101420.63
2023-05-05T03:35:57.305Z,101418.01
2023-05-05T03:36:59.218Z,101421.52
2023-05-05T03:38:01.020Z,101418.01
2023-05-05T03:39:02.814Z,101429.37
2023-05-05T03:40:04.783Z,101425.87
2023-05-05T03:41:06.728Z,101423.25
2023-05-05T03:42:08.552Z,101422.41
2023-05-05T03:43:10.379Z,101424.17
2023-05-05T03:44:12.170Z,101421.58
2023-05-05T03:45:13.868Z,101426.82
2023-05-05T03:46:15.951Z,101418.09
2023-05-05T03:47:17.856Z,101425.09
2023-05-05T03:48:19.865Z,101425.09
2023-05-05T03:49:21.669Z,101415.48
2023-05-05T03:50:23.559Z,101415.48
2023-05-05T03:51:25.388Z,101414.64
2023-05-05T03:52:27.290Z,101415.52
2023-05-05T03:53:29.103Z,101418.19
2023-05-05T03:54:30.887Z,101411.22
2023-05-05T03:55:32.721Z,101414.71
2023-05-05T03:56:34.524Z,101419.09
2023-05-05T03:57:36.404Z,101413.01
2023-05-05T03:58:38.195Z,101424.34
2023-05-05T03:59:40.025Z,101418.27
2023-05-05T04:00:41.910Z,101417.39
2023-05-05T04:01:43.714Z,101421.81
2023-05-05T04:02:45.743Z,101420.08
2023-05-05T04:03:47.637Z,101427.94
2023-05-05T04:04:49.811Z,101421.00
2023-05-05T04:05:51.602Z,101427.09
2023-05-05T04:06:53.525Z,101425.38
2023-05-05T04:07:55.409Z,101422.78
2023-05-05T04:08:57.216Z,101427.14
2023-05-05T04:09:59.016Z,101429.78
2023-05-05T04:11:00.904Z,101421.94
2023-05-05T04:12:02.717Z,101424.56
2023-05-05T04:13:04.611Z,101420.23
2023-05-05T04:14:06.565Z,101421.98
2023-05-05T04:15:08.366Z,101423.74
2023-05-05T04:16:10.586Z,101427.25
2023-05-05T04:17:12.390Z,101428.16
2023-05-05T04:18:14.271Z,101422.08
2023-05-05T04:19:16.093Z,101425.58
2023-05-05T04:20:17.993Z,101426.45
2023-05-05T04:21:19.809Z,101430.84
2023-05-05T04:22:21.626Z,101429.11
2023-05-05T04:23:23.438Z,101416.92
2023-05-05T04:24:25.241Z,101422.18
2023-05-05T04:25:27.040Z,101418.67
2023-05-05T04:26:28.827Z,101417.81
2023-05-05T04:27:30.634Z,101418.68
2023-05-05T04:28:32.570Z,101414.34
2023-05-05T04:29:34.371Z,101416.13
2023-05-05T04:30:36.270Z,101421.38
2023-05-05T04:31:38.125Z,101415.25
2023-05-05T04:32:39.996Z,101416.16
2023-05-05T04:33:41.821Z,101419.66
2023-05-05T04:34:43.599Z,101419.68
2023-05-05T04:35:45.399Z,101421.45
2023-05-05T04:36:47.225Z,101414.46
2023-05-05T04:37:48.919Z,101426.72
2023-05-05T04:38:50.851Z,101419.73
2023-05-05T04:39:52.682Z,101424.98
2023-05-05T04:40:54.596Z,101423.27
2023-05-05T04:41:56.401Z,101422.38
2023-05-05T04:42:58.225Z,101427.63
2023-05-05T04:44:00.316Z,101421.54
2023-05-05T04:45:02.127Z,101429.45
2023-05-05T04:46:03.922Z,101426.84
2023-05-05T04:47:05.716Z,101419.87
2023-05-05T04:48:07.527Z,101418.12
2023-05-05T04:49:09.417Z,101416.37
2023-05-05T04:50:11.557Z,101418.14
2023-05-05T04:51:13.306Z,101424.25
2023-05-05T04:52:15.115Z,101419.02
2023-05-05T04:53:16.923Z,101425.16
2023-05-05T04:54:18.841Z,101428.66
2023-05-05T04:55:20.534Z,101424.31
2023-05-05T04:56:22.455Z,101422.56
2023-05-05T04:57:24.266Z,101419.08
2023-05-05T04:58:26.073Z,101419.95
2023-05-05T04:59:27.956Z,101414.71
2023-05-05T05:00:29.763Z,101411.23
2023-05-05T05:01:31.668Z,101416.48
2023-05-05T05:02:33.733Z,101407.71
2023-05-05T05:03:35.745Z,101405.98
2023-05-05T05:04:37.628Z,101405.09
2023-05-05T05:05:39.305Z,101408.61
2023-05-05T05:06:41.212Z,101402.48
2023-05-05T05:07:43.007Z,101399.86
2023-05-05T05:08:44.800Z,101401.62
2023-05-05T05:09:46.703Z,101405.14
2023-05-05T05:10:48.541Z,101409.49
2023-05-05T05:11:50.340Z,101405.14
2023-05-05T05:12:52.230Z,101402.52
2023-05-05T05:13:54.052Z,101407.77
2023-05-05T05:14:56.045Z,101408.63
2023-05-05T05:15:57.779Z,101407.77
2023-05-05T05:17:00.231Z,101407.77
2023-05-05T05:18:02.263Z,101407.77
2023-05-05T05:19:03.982Z,101409.50
2023-05-05T05:20:06.215Z,101403.39
2023-05-05T05:21:08.253Z,101404.27
2023-05-05T05:22:10.098Z,101410.41
2023-05-05T05:23:11.857Z,101410.41
2023-05-05T05:24:13.720Z,101411.27
2023-05-05T05:25:15.750Z,101412.16
2023-05-05T05:26:17.750Z,101406.92
2023-05-05T05:27:19.552Z,101413.89
2023-05-05T05:28:21.381Z,101409.55
2023-05-05T05:29:23.163Z,101405.16
2023-05-05T05:30:25.114Z,101403.41
2023-05-05T05:31:26.941Z,101406.92
2023-05-05T05:32:28.792Z,101404.30
2023-05-05T05:33:30.623Z,101397.30
2023-05-05T05:34:32.419Z,101397.30
2023-05-05T05:35:34.348Z,101399.91
2023-05-05T05:36:36.164Z,101397.30
2023-05-05T05:37:37.970Z,101394.67
2023-05-05T05:38:39.853Z,101387.66
2023-05-05T05:39:43.476Z,101393.80
2023-05-05T05:40:45.408Z,101399.91
2023-05-05T05:41:47.212Z,101392.94
2023-05-05T05:42:49.066Z,101398.19
2023-05-05T05:43:50.862Z,101394.66
2023-05-05T05:44:52.658Z,101397.29
2023-05-05T05:45:54.651Z,101395.56
2023-05-05T05:46:56.487Z,101399.08
2023-05-05T05:47:58.318Z,101396.45
2023-05-05T05:49:00.176Z,101393.83
2023-05-05T05:50:02.025Z,101398.20
2023-05-05T05:51:03.854Z,101391.19
2023-05-05T05:52:05.656Z,101390.33
2023-05-05T05:53:07.463Z,101397.30
2023-05-05T05:54:09.261Z,101394.70
2023-05-05T05:55:11.057Z,101394.70
2023-05-05T05:56:13.856Z,101398.19
2023-05-05T05:57:15.739Z,101396.42
2023-05-05T05:58:17.604Z,101398.18
2023-05-05T05:59:19.403Z,101399.05
2023-05-05T06:00:21.200Z,101394.69
2023-05-05T06:01:22.997Z,101392.92
2023-05-05T06:02:24.872Z,101394.67
2023-05-05T06:03:26.942Z,101392.05
2023-05-05T06:04:28.996Z,101386.80
2023-05-05T06:05:30.994Z,101391.15
2023-05-05T06:06:32.874Z,101385.04
2023-05-05T06:07:34.650Z,101384.17
2023-05-05T06:08:36.451Z,101382.41
2023-05-05T06:09:38.257Z,101382.41
2023-05-05T06:10:40.104Z,101373.68
2023-05-05T06:11:42.098Z,101373.68
2023-05-05T06:12:43.935Z,101376.30
2023-05-05T06:13:45.787Z,101373.68
2023-05-05T06:14:47.569Z,101378.03
2023-05-05T06:15:49.510Z,101375.39
2023-05-05T06:16:52.049Z,101380.64
2023-05-05T06:17:53.787Z,101379.77
2023-05-05T06:18:55.749Z,101376.27
2023-05-05T06:19:57.548Z,101371.02
2023-05-05T06:20:59.344Z,101367.52
2023-05-05T06:22:01.162Z,101367.50
2023-05-05T06:23:03.096Z,101370.11
2023-05-05T06:24:04.880Z,101374.47
2023-05-05T06:25:06.680Z,101366.58
2023-05-05T06:26:08.766Z,101375.34
2023-05-05T06:27:10.610Z,101364.83
2023-05-05T06:28:12.395Z,101370.08
2023-05-05T06:29:14.219Z,101368.31
2023-05-05T06:30:16.125Z,101363.95
2023-05-05T06:31:17.949Z,101367.42
2023-05-05T06:32:21.578Z,101373.54
2023-05-05T06:33:23.417Z,101363.92
2023-05-05T06:34:25.178Z,101365.64
2023-05-05T06:35:26.976Z,101366.53
2023-05-05T06:36:28.819Z,101354.25
2023-05-05T06:37:30.612Z,101360.36
2023-05-05T06:38:32.440Z,101359.48
2023-05-05T06:39:34.243Z,101358.63
2023-05-05T06:40:36.053Z,101354.22
2023-05-05T06:41:37.839Z,101356.84
2023-05-05T06:42:43.406Z,101356.83
2023-05-05T06:43:45.249Z,101350.70
2023-05-05T06:44:47.038Z,101353.33
2023-05-05T06:45:48.856Z,101351.59
2023-05-05T06:46:50.796Z,101356.83
2023-05-05T06:47:52.671Z,101349.84
2023-05-05T06:48:54.603Z,101353.33
2023-05-05T06:49:56.511Z,101353.31
2023-05-05T06:50:58.303Z,101352.44
2023-05-05T06:52:00.148Z,101344.55
2023-05-05T06:53:02.080Z,101351.52
2023-05-05T06:54:03.891Z,101348.02
2023-05-05T06:55:05.689Z,101347.16
2023-05-05T06:56:07.688Z,101348.89
2023-05-05T06:57:09.383Z,101349.78
2023-05-05T06:58:11.210Z,101344.52
2023-05-05T06:59:13.011Z,101342.76
2023-05-05T07:00:15.100Z,101344.50
2023-05-05T07:01:16.948Z,101347.12
2023-05-05T07:02:18.706Z,101346.25
2023-05-05T07:03:20.680Z,101349.73
2023-05-05T07:04:22.556Z,101343.61
2023-05-05T07:05:24.382Z,101345.33
2023-05-05T07:06:26.500Z,101341.81
2023-05-05T07:07:28.308Z,101340.94
2023-05-05T07:08:30.160Z,101338.31
2023-05-05T07:09:31.864Z,101346.19
2023-05-05T07:10:33.691Z,101336.53
2023-05-05T07:11:35.479Z,101337.40
2023-05-05T07:12:37.343Z,101336.53
2023-05-05T07:13:39.221Z,101333.88
2023-05-05T07:14:41.017Z,101332.11
2023-05-05T07:15:42.822Z,101339.11
2023-05-05T07:16:44.633Z,101332.98
2023-05-05T07:17:46.553Z,101327.71
2023-05-05T07:18:48.450Z,101327.71
2023-05-05T07:19:50.259Z,101330.31
2023-05-05T07:20:52.153Z,101324.19
2023-05-05T07:21:53.946Z,101325.03
2023-05-05T07:22:55.923Z,101320.64
2023-05-05T07:23:57.667Z,101319.75
2023-05-05T07:24:59.453Z,101315.35
2023-05-05T07:26:01.257Z,101314.47
2023-05-05T07:27:03.069Z,101319.73
2023-05-05T07:28:04.890Z,101310.07
2023-05-05T07:29:06.719Z,101311.81
2023-05-05T07:30:12.425Z,101312.66
2023-05-05T07:31:12.740Z,101319.66
2023-05-05T07:32:14.644Z,101312.66
2023-05-05T07:33:16.421Z,101312.63
2023-05-05T07:34:18.293Z,101315.24
2023-05-05T07:35:20.064Z,101314.32
2023-05-05T07:36:21.852Z,101312.57
2023-05-05T07:37:23.654Z,101321.30
2023-05-05T07:38:25.442Z,101315.14
2023-05-05T07:39:27.298Z,101316.86
2023-05-05T07:40:29.188Z,101310.72
2023-05-05T07:41:31.026Z,101310.69
2023-05-05T07:42:32.817Z,101307.16
2023-05-05T07:43:34.669Z,101308.92
2023-05-05T07:44:36.500Z,101306.28
2023-05-05T07:45:38.567Z,101308.00
2023-05-05T07:46:40.747Z,101307.13
2023-05-05T07:47:42.560Z,101304.45
2023-05-05T07:48:44.427Z,101303.58
2023-05-05T07:49:46.270Z,101307.06
2023-05-05T07:50:48.083Z,101308.83
2023-05-05T07:51:49.861Z,101306.16
2023-05-05T07:52:56.337Z,101300.01
2023-05-05T07:53:55.167Z,101307.03
2023-05-05T07:54:57.014Z,101307.03
2023-05-05T07:55:58.833Z,101308.77
2023-05-05T07:57:00.624Z,101306.99
2023-05-05T07:58:02.413Z,101305.26
2023-05-05T07:59:04.208Z,101308.73
2023-05-05T08:00:06.603Z,101304.33
2023-05-05T08:01:08.784Z,101297.33
2023-05-05T08:02:10.649Z,101295.55
2023-05-05T08:03:12.599Z,101293.77
2023-05-05T08:04:14.629Z,101296.40
2023-05-05T08:05:16.573Z,101299.91
2023-05-05T08:06:18.340Z,101299.00
2023-05-05T08:07:20.065Z,101292.85
2023-05-05T08:08:21.857Z,101298.12
2023-05-05T08:09:23.662Z,101294.61
2023-05-05T08:10:25.609Z,101291.95
2023-05-05T08:11:29.548Z,101292.82
2023-05-05T08:12:31.033Z,101296.31
2023-05-05T08:13:32.822Z,101291.05
2023-05-05T08:14:34.629Z,101291.03
2023-05-05T08:15:36.463Z,101287.53
2023-05-05T08:16:38.265Z,101286.67
2023-05-05T08:17:40.165Z,101291.92
2023-05-05T08:18:42.011Z,101294.55
2023-05-05T08:19:43.823Z,101291.01
2023-05-05T08:20:45.649Z,101288.38
2023-05-05T08:21:47.449Z,101296.26
2023-05-05T08:22:49.262Z,101285.73
2023-05-05T08:23:51.059Z,101284.84
2023-05-05T08:24:52.767Z,101282.20
2023-05-05T08:25:54.611Z,101287.47
2023-05-05T08:26:56.522Z,101275.16
2023-05-05T08:27:58.525Z,101273.42
2023-05-05T08:29:00.351Z,101275.17
2023-05-05T08:30:02.137Z,101280.42
2023-05-05T08:31:04.176Z,101276.88
2023-05-05T08:32:06.366Z,101282.14
2023-05-05T08:33:08.210Z,101281.28
2023-05-05T08:34:10.051Z,101274.24
2023-05-05T08:35:12.324Z,101273.36
2023-05-05T08:36:14.622Z,101275.12
2023-05-05T08:37:16.437Z,101283.88
2023-05-05T08:38:18.238Z,101281.25
2023-05-05T08:39:20.057Z,101282.10
2023-05-05T08:40:21.848Z,101285.63
2023-05-05T08:41:23.689Z,101279.45
2023-05-05T08:42:36.289Z,101279.45
2023-05-05T08:43:29.089Z,101282.06
2023-05-05T08:44:30.890Z,101270.67
2023-05-05T08:45:32.689Z,101279.44
2023-05-05T08:46:34.560Z,101278.57
2023-05-05T08:47:36.403Z,101288.20
2023-05-05T08:48:38.262Z,101275.04
2023-05-05T08:49:40.066Z,101275.04
2023-05-05T08:50:41.871Z,101276.77
2023-05-05T08:51:43.698Z,101275.88
2023-05-05T08:52:45.708Z,101276.72
2023-05-05T08:53:47.694Z,101274.09
2023-05-05T08:54:50.723Z,101275.84
2023-05-05T08:55:52.573Z,101271.44
2023-05-05T08:56:54.395Z,101279.31
2023-05-05T08:57:56.253Z,101275.82
2023-05-05T08:58:58.444Z,101266.14
2023-05-05T09:00:00.269Z,101271.39
2023-05-05T09:01:02.113Z,101271.39
2023-05-05T09:02:03.973Z,101266.11
2023-05-05T09:03:05.968Z,101259.14
2023-05-05T09:04:07.947Z,101259.14
2023-05-05T09:05:10.045Z,101263.47
2023-05-05T09:06:12.302Z,101263.47
2023-05-05T09:07:14.136Z,101259.94
2023-05-05T09:08:15.915Z,101260.83
2023-05-05T09:09:17.719Z,101265.19
2023-05-05T09:10:19.553Z,101260.83
2023-05-05T09:11:21.339Z,101260.81
2023-05-05T09:12:23.198Z,101262.53
2023-05-05T09:13:24.977Z,101261.67
2023-05-05T09:14:26.784Z,101260.80
2023-05-05T09:15:28.619Z,101259.88
2023-05-05T09:16:30.577Z,101258.14
2023-05-05T09:17:32.426Z,101258.12
2023-05-05T09:18:34.292Z,101264.22
2023-05-05T09:19:36.106Z,101258.94
2023-05-05T09:20:37.898Z,101256.28
2023-05-05T09:21:39.861Z,101260.66
2023-05-05T09:22:41.599Z,101258.89
2023-05-05T09:23:43.399Z,101257.12
2023-05-05T09:24:45.206Z,101259.73
2023-05-05T09:25:47.035Z,101255.33
2023-05-05T09:26:48.916Z,101257.98
2023-05-05T09:27:50.763Z,101255.32
2023-05-05T09:28:52.578Z,101254.41
2023-05-05T09:29:54.382Z,101251.78
2023-05-05T09:30:56.314Z,101254.39
2023-05-05T09:31:58.177Z,101258.75
2023-05-05T09:33:00.066Z,101260.48
2023-05-05T09:34:01.859Z,101253.44
2023-05-05T09:35:03.650Z,101256.96
2023-05-05T09:36:05.549Z,101256.96
2023-05-05T09:37:07.364Z,101255.16
2023-05-05T09:38:09.201Z,101254.28
2023-05-05T09:39:11.016Z,101253.37
2023-05-05T09:40:13.524Z,101251.64
2023-05-05T09:41:15.343Z,101245.44
2023-05-05T09:42:17.148Z,101251.60
2023-05-05T09:43:19.036Z,101251.58
2023-05-05T09:44:20.849Z,101249.80
2023-05-05T09:45:22.664Z,101244.50
2023-05-05T09:46:24.480Z,101244.48
2023-05-05T09:47:29.520Z,101246.23
2023-05-05T09:48:29.939Z,101240.05
2023-05-05T09:49:31.901Z,101233.84
2023-05-05T09:50:33.795Z,101238.16
2023-05-05T09:51:35.594Z,101242.50
2023-05-05T09:52:37.395Z,101236.23
2023-05-05T09:53:39.240Z,101238.80
2023-05-05T09:54:41.079Z,101244.75
2023-05-05T09:55:42.774Z,101244.75
2023-05-05T09:56:44.573Z,101247.28
2023-05-05T09:57:46.276Z,101241.05
2023-05-05T09:58:48.195Z,101239.19
2023-05-05T09:59:50.039Z,101242.61
2023-05-05T10:00:51.829Z,101242.61
2023-05-05T10:01:53.693Z,101242.53
2023-05-05T10:02:55.723Z,101238.05
2023-05-05T10:03:57.596Z,101239.75
2023-05-05T10:05:01.542Z,101237.05
2023-05-05T10:06:02.996Z,101242.24
2023-05-05T10:07:04.833Z,101242.19
2023-05-05T10:08:06.621Z,101240.34
2023-05-05T10:09:08.475Z,101240.26
2023-05-05T10:10:10.595Z,101237.63
2023-05-05T10:11:12.598Z,101234.92
2023-05-05T10:12:14.373Z,101241.00
2023-05-05T10:13:16.256Z,101237.44
2023-05-05T10:14:18.145Z,101235.62
2023-05-05T10:15:19.974Z,101222.39
2023-05-05T10:16:21.819Z,101232.03
2023-05-05T10:17:23.768Z,101228.44
2023-05-05T10:18:25.765Z,101231.94
2023-05-05T10:19:27.643Z,101227.48
2023-05-05T10:20:29.544Z,101223.06
2023-05-05T10:21:31.346Z,101220.36
2023-05-05T10:22:33.153Z,101226.47
2023-05-05T10:23:34.999Z,101225.55
2023-05-05T10:24:36.992Z,101223.73
2023-05-05T10:25:38.796Z,101229.84
2023-05-05T10:26:42.423Z,101219.23
2023-05-05T10:27:44.233Z,101227.13
2023-05-05T10:28:46.072Z,101220.98
2023-05-05T10:29:47.890Z,101222.70
2023-05-05T10:30:49.690Z,101226.14
2023-05-05T10:31:51.530Z,101224.36
2023-05-05T10:33:07.991Z,101226.97
2023-05-05T10:33:57.265Z,101218.11
2023-05-05T10:34:59.160Z,101218.97
2023-05-05T10:36:00.958Z,101219.80
2023-05-05T10:37:02.752Z,101227.69
2023-05-05T10:38:04.556Z,101219.77
2023-05-05T10:39:06.372Z,101225.02
2023-05-05T10:40:09.049Z,101218.84
2023-05-05T10:41:11.006Z,101213.55
2023-05-05T10:42:12.792Z,101216.16
2023-05-05T10:43:14.588Z,101219.63
2023-05-05T10:44:16.396Z,101221.34
2023-05-05T10:45:18.157Z,101219.55
2023-05-05T10:46:20.039Z,101213.37
2023-05-05T10:47:21.935Z,101219.52
2023-05-05T10:48:23.839Z,101214.23
2023-05-05T10:49:25.641Z,101221.27
2023-05-05T10:50:27.466Z,101217.77
2023-05-05T10:51:39.431Z,101218.59
2023-05-05T10:52:32.775Z,101210.66
2023-05-05T10:53:34.553Z,101209.77
2023-05-05T10:54:37.800Z,101212.41
2023-05-05T10:55:39.991Z,101221.20
2023-05-05T10:56:41.816Z,101218.56
2023-05-05T10:57:43.609Z,101215.91
2023-05-05T10:58:59.007Z,101214.13
2023-05-05T10:59:49.010Z,101215.02
2023-05-05T11:00:50.870Z,101209.73
2023-05-05T11:01:52.648Z,101209.73
2023-05-05T11:02:54.495Z,101208.81
2023-05-05T11:03:56.379Z,101210.56
2023-05-05T11:04:58.245Z,101209.70
2023-05-05T11:06:00.067Z,101204.41
2023-05-05T11:07:01.876Z,101205.27
2023-05-05T11:08:03.575Z,101199.98
2023-05-05T11:09:05.369Z,101208.73
2023-05-05T11:10:07.804Z,101205.23
2023-05-05T11:11:10.139Z,101198.20
2023-05-05T11:12:11.990Z,101204.34
2023-05-05T11:13:13.874Z,101201.70
2023-05-05T11:24:58.754Z,101188.05
2023-05-05T11:26:00.565Z,101190.88
2023-05-05T11:27:02.359Z,101187.27
2023-05-05T11:28:04.155Z,101187.19
2023-05-05T11:29:06.071Z,101188.05
2023-05-05T11:30:08.449Z,101179.22
2023-05-05T11:31:10.581Z,101184.47
2023-05-05T11:32:12.394Z,101186.19
2023-05-05T11:33:14.153Z,101185.33
2023-05-05T11:34:15.979Z,101181.78
2023-05-05T11:35:17.803Z,101178.25
2023-05-05T11:36:19.600Z,101177.39
2023-05-05T11:37:21.392Z,101179.19
2023-05-05T11:38:23.200Z,101179.19
2023-05-05T11:39:25.003Z,101179.19
2023-05-05T11:40:26.898Z,101170.36
2023-05-05T11:41:28.689Z,101179.22
2023-05-05T11:42:30.569Z,101175.69
2023-05-05T11:43:32.383Z,101173.97
2023-05-05T11:44:34.229Z,101173.97
2023-05-05T11:45:36.054Z,101168.72
2023-05-05T11:46:37.925Z,101167.83
2023-05-05T11:47:39.759Z,101174.01
2023-05-05T11:48:41.953Z,101177.51
2023-05-05T11:49:43.798Z,101174.05
2023-05-05T11:50:45.588Z,101167.01
2023-05-05T11:51:47.398Z,101174.94
2023-05-05T11:52:49.203Z,101167.01
2023-05-05T11:53:51.024Z,101167.01
2023-05-05T11:54:52.831Z,101166.16
2023-05-05T11:55:54.615Z,101163.52
2023-05-05T11:56:56.430Z,101160.86